sensor_id;sensor_type;location;lat;lon;timestamp;temperature;humidity
4435;DHT22;46552;52.150;8.428;2022-12-07T00:01:30;5.40;99.90
4435;DHT22;46552;52.150;8.428;2022-12-07T00:03:59;5.40;99.90
4435;DHT22;46552;52.150;8.428;2022-12-07T00:06:31;5.40;99.90
4435;DHT22;46552;52.150;8.428;2022-12-07T00:08:58;5.40;99.90
4435;DHT22;46552;52.150;8.428;2022-12-07T00:11:27;5.40;99.90
4435;DHT22;46552;52.150;8.428;2022-12-07T00:13:56;5.40;99.90
4435;DHT22;46552;52.150;8.428;2022-12-07T00:16:26;5.40;99.90
4435;DHT22;46552;52.150;8.428;2022-12-07T00:18:54;5.40;99.90
4435;DHT22;46552;52.150;8.428;2022-12-07T00:21:24;5.50;99.90
4435;DHT22;46552;52.150;8.428;2022-12-07T00:23:52;5.50;99.90
4435;DHT22;46552;52.150;8.428;2022-12-07T00:26:21;5.50;99.90
4435;DHT22;46552;52.150;8.428;2022-12-07T00:28:52;5.50;99.90
4435;DHT22;46552;52.150;8.428;2022-12-07T00:31:21;5.50;99.90
4435;DHT22;46552;52.150;8.428;2022-12-07T00:33:48;5.50;99.90
4435;DHT22;46552;52.150;8.428;2022-12-07T00:36:18;5.50;99.90
4435;DHT22;46552;52.150;8.428;2022-12-07T00:38:45;5.50;99.90
4435;DHT22;46552;52.150;8.428;2022-12-07T00:41:14;5.50;99.90
4435;DHT22;46552;52.150;8.428;2022-12-07T00:43:43;5.50;99.90
4435;DHT22;46552;52.150;8.428;2022-12-07T00:46:14;5.60;99.90
4435;DHT22;46552;52.150;8.428;2022-12-07T00:48:42;5.50;99.90
4435;DHT22;46552;52.150;8.428;2022-12-07T00:51:10;5.50;99.90
4435;DHT22;46552;52.150;8.428;2022-12-07T00:53:38;5.50;99.90
4435;DHT22;46552;52.150;8.428;2022-12-07T00:56:07;5.50;99.90
4435;DHT22;46552;52.150;8.428;2022-12-07T00:58:35;5.50;99.90
4435;DHT22;46552;52.150;8.428;2022-12-07T01:01:03;5.60;99.90
4435;DHT22;46552;52.150;8.428;2022-12-07T01:03:31;5.60;99.90
4435;DHT22;46552;52.150;8.428;2022-12-07T01:05:59;5.60;99.90
4435;DHT22;46552;52.150;8.428;2022-12-07T01:08:27;5.60;99.90
4435;DHT22;46552;52.150;8.428;2022-12-07T01:10:59;5.50;99.90
4435;DHT22;46552;52.150;8.428;2022-12-07T01:13:26;5.50;99.90
4435;DHT22;46552;52.150;8.428;2022-12-07T01:15:56;5.50;99.90
4435;DHT22;46552;52.150;8.428;2022-12-07T01:18:24;5.50;99.90
4435;DHT22;46552;52.150;8.428;2022-12-07T01:20:59;5.50;99.90
4435;DHT22;46552;52.150;8.428;2022-12-07T01:23:27;5.50;99.90
4435;DHT22;46552;52.150;8.428;2022-12-07T01:25:55;5.50;99.90
4435;DHT22;46552;52.150;8.428;2022-12-07T01:28:24;5.50;99.90
4435;DHT22;46552;52.150;8.428;2022-12-07T01:31:02;5.50;99.90
4435;DHT22;46552;52.150;8.428;2022-12-07T01:33:31;5.50;99.90
4435;DHT22;46552;52.150;8.428;2022-12-07T01:36:04;5.50;99.90
4435;DHT22;46552;52.150;8.428;2022-12-07T01:38:32;5.50;99.90
4435;DHT22;46552;52.150;8.428;2022-12-07T01:41:01;5.50;99.90
4435;DHT22;46552;52.150;8.428;2022-12-07T01:43:30;5.50;99.90
4435;DHT22;46552;52.150;8.428;2022-12-07T01:45:58;5.50;99.90
4435;DHT22;46552;52.150;8.428;2022-12-07T01:48:28;5.50;99.90
4435;DHT22;46552;52.150;8.428;2022-12-07T01:51:00;5.50;99.90
4435;DHT22;46552;52.150;8.428;2022-12-07T01:53:30;5.40;99.90
4435;DHT22;46552;52.150;8.428;2022-12-07T01:55:59;5.40;99.90
4435;DHT22;46552;52.150;8.428;2022-12-07T01:58:27;5.30;99.90
4435;DHT22;46552;52.150;8.428;2022-12-07T02:00:55;5.30;99.90
4435;DHT22;46552;52.150;8.428;2022-12-07T02:03:27;5.30;99.90
4435;DHT22;46552;52.150;8.428;2022-12-07T02:05:56;5.30;99.90
4435;DHT22;46552;52.150;8.428;2022-12-07T02:08:24;5.20;99.90
4435;DHT22;46552;52.150;8.428;2022-12-07T02:10:55;5.20;99.90
4435;DHT22;46552;52.150;8.428;2022-12-07T02:13:26;5.20;99.90
4435;DHT22;46552;52.150;8.428;2022-12-07T02:16:10;5.10;99.90
4435;DHT22;46552;52.150;8.428;2022-12-07T02:18:48;5.10;99.90
4435;DHT22;46552;52.150;8.428;2022-12-07T02:21:21;5.10;99.90
4435;DHT22;46552;52.150;8.428;2022-12-07T02:24:13;5.10;99.90
4435;DHT22;46552;52.150;8.428;2022-12-07T02:27:10;5.10;99.90
4435;DHT22;46552;52.150;8.428;2022-12-07T02:29:47;5.10;99.90
4435;DHT22;46552;52.150;8.428;2022-12-07T02:32:19;5.10;99.90
4435;DHT22;46552;52.150;8.428;2022-12-07T02:34:50;5.10;99.90
4435;DHT22;46552;52.150;8.428;2022-12-07T02:37:35;5.00;99.90
4435;DHT22;46552;52.150;8.428;2022-12-07T02:40:08;5.00;99.90
4435;DHT22;46552;52.150;8.428;2022-12-07T02:42:38;5.00;99.90
4435;DHT22;46552;52.150;8.428;2022-12-07T02:45:10;5.00;99.90
4435;DHT22;46552;52.150;8.428;2022-12-07T02:47:39;5.00;99.90
4435;DHT22;46552;52.150;8.428;2022-12-07T02:50:08;5.00;99.90
4435;DHT22;46552;52.150;8.428;2022-12-07T02:52:37;5.00;99.90
4435;DHT22;46552;52.150;8.428;2022-12-07T02:55:08;5.00;99.90
4435;DHT22;46552;52.150;8.428;2022-12-07T02:57:45;4.90;99.90
4435;DHT22;46552;52.150;8.428;2022-12-07T03:00:20;4.90;99.90
4435;DHT22;46552;52.150;8.428;2022-12-07T03:02:53;4.80;99.90
4435;DHT22;46552;52.150;8.428;2022-12-07T03:05:32;4.80;99.90
4435;DHT22;46552;52.150;8.428;2022-12-07T03:08:12;4.80;99.90
4435;DHT22;46552;52.150;8.428;2022-12-07T03:10:47;4.70;99.90
4435;DHT22;46552;52.150;8.428;2022-12-07T03:13:22;4.70;99.90
4435;DHT22;46552;52.150;8.428;2022-12-07T03:15:57;4.70;99.90
4435;DHT22;46552;52.150;8.428;2022-12-07T03:18:28;4.70;99.90
4435;DHT22;46552;52.150;8.428;2022-12-07T03:21:01;4.60;99.90
4435;DHT22;46552;52.150;8.428;2022-12-07T03:23:30;4.60;99.90
4435;DHT22;46552;52.150;8.428;2022-12-07T03:26:00;4.60;99.90
4435;DHT22;46552;52.150;8.428;2022-12-07T03:28:31;4.60;99.90
4435;DHT22;46552;52.150;8.428;2022-12-07T03:31:05;4.60;99.90
4435;DHT22;46552;52.150;8.428;2022-12-07T03:33:39;4.50;99.90
4435;DHT22;46552;52.150;8.428;2022-12-07T03:36:11;4.50;99.90
4435;DHT22;46552;52.150;8.428;2022-12-07T03:38:44;4.50;99.90
4435;DHT22;46552;52.150;8.428;2022-12-07T03:41:14;4.40;99.90
4435;DHT22;46552;52.150;8.428;2022-12-07T03:43:44;4.40;99.90
4435;DHT22;46552;52.150;8.428;2022-12-07T03:46:19;4.40;99.90
4435;DHT22;46552;52.150;8.428;2022-12-07T03:48:56;4.40;99.90
4435;DHT22;46552;52.150;8.428;2022-12-07T03:51:31;4.40;99.90
4435;DHT22;46552;52.150;8.428;2022-12-07T03:54:07;4.40;99.90
4435;DHT22;46552;52.150;8.428;2022-12-07T03:56:36;4.40;99.90
4435;DHT22;46552;52.150;8.428;2022-12-07T03:59:04;4.40;99.90
4435;DHT22;46552;52.150;8.428;2022-12-07T04:01:33;4.40;99.90
4435;DHT22;46552;52.150;8.428;2022-12-07T04:04:00;4.40;99.90
4435;DHT22;46552;52.150;8.428;2022-12-07T04:06:27;4.40;99.90
4435;DHT22;46552;52.150;8.428;2022-12-07T04:08:55;4.40;99.90
4435;DHT22;46552;52.150;8.428;2022-12-07T04:11:22;4.40;99.90
4435;DHT22;46552;52.150;8.428;2022-12-07T04:13:49;4.40;99.90
4435;DHT22;46552;52.150;8.428;2022-12-07T04:16:34;4.40;99.90
4435;DHT22;46552;52.150;8.428;2022-12-07T04:19:01;4.40;99.90
4435;DHT22;46552;52.150;8.428;2022-12-07T04:21:28;4.40;99.90
4435;DHT22;46552;52.150;8.428;2022-12-07T04:23:55;4.40;99.90
4435;DHT22;46552;52.150;8.428;2022-12-07T04:26:22;4.40;99.90
4435;DHT22;46552;52.150;8.428;2022-12-07T04:28:49;4.40;99.90
4435;DHT22;46552;52.150;8.428;2022-12-07T04:31:17;4.40;99.90
4435;DHT22;46552;52.150;8.428;2022-12-07T04:33:46;4.40;99.90
4435;DHT22;46552;52.150;8.428;2022-12-07T04:36:13;4.40;99.90
4435;DHT22;46552;52.150;8.428;2022-12-07T04:38:40;4.40;99.90
4435;DHT22;46552;52.150;8.428;2022-12-07T04:41:08;4.40;99.90
4435;DHT22;46552;52.150;8.428;2022-12-07T04:43:36;4.30;99.90
4435;DHT22;46552;52.150;8.428;2022-12-07T04:46:03;4.30;99.90
4435;DHT22;46552;52.150;8.428;2022-12-07T04:48:30;4.30;99.90
4435;DHT22;46552;52.150;8.428;2022-12-07T04:50:59;4.30;99.90
4435;DHT22;46552;52.150;8.428;2022-12-07T04:53:27;4.30;99.90
4435;DHT22;46552;52.150;8.428;2022-12-07T04:55:56;4.30;99.90
4435;DHT22;46552;52.150;8.428;2022-12-07T04:58:23;4.40;99.90
4435;DHT22;46552;52.150;8.428;2022-12-07T05:00:53;4.40;99.90
4435;DHT22;46552;52.150;8.428;2022-12-07T05:03:21;4.40;99.90
4435;DHT22;46552;52.150;8.428;2022-12-07T05:05:49;4.40;99.90
4435;DHT22;46552;52.150;8.428;2022-12-07T05:08:17;4.40;99.90
4435;DHT22;46552;52.150;8.428;2022-12-07T05:10:45;4.40;99.90
4435;DHT22;46552;52.150;8.428;2022-12-07T05:13:12;4.40;99.90
4435;DHT22;46552;52.150;8.428;2022-12-07T05:15:39;4.40;99.90
4435;DHT22;46552;52.150;8.428;2022-12-07T05:18:08;4.40;99.90
4435;DHT22;46552;52.150;8.428;2022-12-07T05:20:35;4.40;99.90
4435;DHT22;46552;52.150;8.428;2022-12-07T05:23:03;4.40;99.90
4435;DHT22;46552;52.150;8.428;2022-12-07T05:25:31;4.40;99.90
4435;DHT22;46552;52.150;8.428;2022-12-07T05:27:59;4.40;99.90
4435;DHT22;46552;52.150;8.428;2022-12-07T05:30:27;4.40;99.90
4435;DHT22;46552;52.150;8.428;2022-12-07T05:32:55;4.40;99.90
4435;DHT22;46552;52.150;8.428;2022-12-07T05:35:22;4.40;99.90
4435;DHT22;46552;52.150;8.428;2022-12-07T05:37:49;4.40;99.90
4435;DHT22;46552;52.150;8.428;2022-12-07T05:40:18;4.40;99.90
4435;DHT22;46552;52.150;8.428;2022-12-07T05:42:47;4.40;99.90
4435;DHT22;46552;52.150;8.428;2022-12-07T05:45:14;4.40;99.90
4435;DHT22;46552;52.150;8.428;2022-12-07T05:47:42;4.40;99.90
4435;DHT22;46552;52.150;8.428;2022-12-07T05:50:09;4.50;99.90
4435;DHT22;46552;52.150;8.428;2022-12-07T05:52:36;4.40;99.90
4435;DHT22;46552;52.150;8.428;2022-12-07T05:55:04;4.40;99.90
4435;DHT22;46552;52.150;8.428;2022-12-07T05:57:33;4.40;99.90
4435;DHT22;46552;52.150;8.428;2022-12-07T06:00:03;4.40;99.90
4435;DHT22;46552;52.150;8.428;2022-12-07T06:02:29;4.40;99.90
4435;DHT22;46552;52.150;8.428;2022-12-07T06:04:56;4.40;99.90
4435;DHT22;46552;52.150;8.428;2022-12-07T06:07:24;4.40;99.90
4435;DHT22;46552;52.150;8.428;2022-12-07T06:09:51;4.40;99.90
4435;DHT22;46552;52.150;8.428;2022-12-07T06:12:18;4.30;99.90
4435;DHT22;46552;52.150;8.428;2022-12-07T06:15:01;4.30;99.90
4435;DHT22;46552;52.150;8.428;2022-12-07T06:17:28;4.30;99.90
4435;DHT22;46552;52.150;8.428;2022-12-07T06:19:56;4.20;99.90
4435;DHT22;46552;52.150;8.428;2022-12-07T06:22:23;4.30;99.90
4435;DHT22;46552;52.150;8.428;2022-12-07T06:24:50;4.30;99.90
4435;DHT22;46552;52.150;8.428;2022-12-07T06:27:17;4.20;99.90
4435;DHT22;46552;52.150;8.428;2022-12-07T06:29:46;4.20;99.90
4435;DHT22;46552;52.150;8.428;2022-12-07T06:32:15;4.20;99.90
4435;DHT22;46552;52.150;8.428;2022-12-07T06:34:42;4.20;99.90
4435;DHT22;46552;52.150;8.428;2022-12-07T06:37:09;4.20;99.90
4435;DHT22;46552;52.150;8.428;2022-12-07T06:39:36;4.20;99.90
4435;DHT22;46552;52.150;8.428;2022-12-07T06:42:04;4.10;99.90
4435;DHT22;46552;52.150;8.428;2022-12-07T06:44:31;4.10;99.90
4435;DHT22;46552;52.150;8.428;2022-12-07T06:46:59;4.10;99.90
4435;DHT22;46552;52.150;8.428;2022-12-07T06:49:28;4.10;99.90
4435;DHT22;46552;52.150;8.428;2022-12-07T06:51:55;4.10;99.90
4435;DHT22;46552;52.150;8.428;2022-12-07T06:54:22;4.10;99.90
4435;DHT22;46552;52.150;8.428;2022-12-07T06:56:49;4.00;99.90
4435;DHT22;46552;52.150;8.428;2022-12-07T06:59:16;4.00;99.90
4435;DHT22;46552;52.150;8.428;2022-12-07T07:01:43;4.00;99.90
4435;DHT22;46552;52.150;8.428;2022-12-07T07:04:12;4.00;99.90
4435;DHT22;46552;52.150;8.428;2022-12-07T07:06:41;4.00;99.90
4435;DHT22;46552;52.150;8.428;2022-12-07T07:09:08;4.00;99.90
4435;DHT22;46552;52.150;8.428;2022-12-07T07:11:35;3.90;99.90
4435;DHT22;46552;52.150;8.428;2022-12-07T07:14:02;3.90;99.90
4435;DHT22;46552;52.150;8.428;2022-12-07T07:16:30;3.90;99.90
4435;DHT22;46552;52.150;8.428;2022-12-07T07:18:58;3.90;99.90
4435;DHT22;46552;52.150;8.428;2022-12-07T07:21:26;3.90;99.90
4435;DHT22;46552;52.150;8.428;2022-12-07T07:23:54;3.90;99.90
4435;DHT22;46552;52.150;8.428;2022-12-07T07:26:22;3.90;99.90
4435;DHT22;46552;52.150;8.428;2022-12-07T07:28:49;3.90;99.90
4435;DHT22;46552;52.150;8.428;2022-12-07T07:31:17;3.80;99.90
4435;DHT22;46552;52.150;8.428;2022-12-07T07:33:45;3.80;99.90
4435;DHT22;46552;52.150;8.428;2022-12-07T07:36:12;3.90;99.90
4435;DHT22;46552;52.150;8.428;2022-12-07T07:38:39;3.90;99.90
4435;DHT22;46552;52.150;8.428;2022-12-07T07:41:08;3.80;99.90
4435;DHT22;46552;52.150;8.428;2022-12-07T07:43:35;3.90;99.90
4435;DHT22;46552;52.150;8.428;2022-12-07T07:46:02;3.90;99.90
4435;DHT22;46552;52.150;8.428;2022-12-07T07:48:29;3.80;99.90
4435;DHT22;46552;52.150;8.428;2022-12-07T07:50:57;3.90;99.90
4435;DHT22;46552;52.150;8.428;2022-12-07T07:53:24;4.00;99.90
4435;DHT22;46552;52.150;8.428;2022-12-07T07:55:52;4.00;99.90
4435;DHT22;46552;52.150;8.428;2022-12-07T07:58:22;4.00;99.90
4435;DHT22;46552;52.150;8.428;2022-12-07T08:00:49;4.10;99.90
4435;DHT22;46552;52.150;8.428;2022-12-07T08:03:16;4.10;99.90
4435;DHT22;46552;52.150;8.428;2022-12-07T08:05:43;4.30;99.90
4435;DHT22;46552;52.150;8.428;2022-12-07T08:08:11;4.40;99.90
4435;DHT22;46552;52.150;8.428;2022-12-07T08:10:38;4.60;99.90
4435;DHT22;46552;52.150;8.428;2022-12-07T08:13:05;5.30;99.90
4435;DHT22;46552;52.150;8.428;2022-12-07T08:15:42;6.00;99.90
4435;DHT22;46552;52.150;8.428;2022-12-07T08:18:10;6.50;99.90
4435;DHT22;46552;52.150;8.428;2022-12-07T08:20:38;6.80;99.90
4435;DHT22;46552;52.150;8.428;2022-12-07T08:23:06;6.90;99.90
4435;DHT22;46552;52.150;8.428;2022-12-07T08:25:34;6.80;99.90
4435;DHT22;46552;52.150;8.428;2022-12-07T08:28:02;6.60;99.90
4435;DHT22;46552;52.150;8.428;2022-12-07T08:30:30;6.40;99.90
4435;DHT22;46552;52.150;8.428;2022-12-07T08:32:59;6.20;99.90
4435;DHT22;46552;52.150;8.428;2022-12-07T08:35:27;6.10;99.90
4435;DHT22;46552;52.150;8.428;2022-12-07T08:37:55;6.00;99.90
4435;DHT22;46552;52.150;8.428;2022-12-07T08:40:23;5.90;99.90
4435;DHT22;46552;52.150;8.428;2022-12-07T08:42:51;5.80;99.90
4435;DHT22;46552;52.150;8.428;2022-12-07T08:45:19;6.00;99.90
4435;DHT22;46552;52.150;8.428;2022-12-07T08:47:49;6.00;99.90
4435;DHT22;46552;52.150;8.428;2022-12-07T08:50:19;7.00;99.90
4435;DHT22;46552;52.150;8.428;2022-12-07T08:52:48;8.10;99.90
4435;DHT22;46552;52.150;8.428;2022-12-07T08:55:17;9.40;99.90
4435;DHT22;46552;52.150;8.428;2022-12-07T08:57:45;10.80;99.90
4435;DHT22;46552;52.150;8.428;2022-12-07T09:00:13;11.60;99.90
4435;DHT22;46552;52.150;8.428;2022-12-07T09:02:43;12.20;99.90
4435;DHT22;46552;52.150;8.428;2022-12-07T09:05:10;12.80;99.90
4435;DHT22;46552;52.150;8.428;2022-12-07T09:07:42;12.90;99.90
4435;DHT22;46552;52.150;8.428;2022-12-07T09:10:11;12.50;99.90
4435;DHT22;46552;52.150;8.428;2022-12-07T09:12:39;12.10;99.90
4435;DHT22;46552;52.150;8.428;2022-12-07T09:15:08;12.10;99.90
4435;DHT22;46552;52.150;8.428;2022-12-07T09:17:35;11.70;99.90
4435;DHT22;46552;52.150;8.428;2022-12-07T09:20:04;11.10;99.90
4435;DHT22;46552;52.150;8.428;2022-12-07T09:22:31;10.50;99.90
4435;DHT22;46552;52.150;8.428;2022-12-07T09:25:01;9.40;99.90
4435;DHT22;46552;52.150;8.428;2022-12-07T09:27:29;9.40;99.90
4435;DHT22;46552;52.150;8.428;2022-12-07T09:29:56;8.90;99.90
4435;DHT22;46552;52.150;8.428;2022-12-07T09:32:23;8.60;99.90
4435;DHT22;46552;52.150;8.428;2022-12-07T09:34:50;8.40;99.90
4435;DHT22;46552;52.150;8.428;2022-12-07T09:37:17;8.40;99.90
4435;DHT22;46552;52.150;8.428;2022-12-07T09:39:44;8.40;99.90
4435;DHT22;46552;52.150;8.428;2022-12-07T09:42:26;8.30;99.90
4435;DHT22;46552;52.150;8.428;2022-12-07T09:44:54;8.00;99.90
4435;DHT22;46552;52.150;8.428;2022-12-07T09:47:21;8.00;99.90
4435;DHT22;46552;52.150;8.428;2022-12-07T09:49:51;8.10;99.90
4435;DHT22;46552;52.150;8.428;2022-12-07T09:52:21;8.30;99.90
4435;DHT22;46552;52.150;8.428;2022-12-07T09:54:52;8.40;99.90
4435;DHT22;46552;52.150;8.428;2022-12-07T09:57:29;8.30;99.90
4435;DHT22;46552;52.150;8.428;2022-12-07T10:00:00;8.30;99.90
4435;DHT22;46552;52.150;8.428;2022-12-07T10:02:35;8.20;99.90
4435;DHT22;46552;52.150;8.428;2022-12-07T10:05:05;8.00;99.90
4435;DHT22;46552;52.150;8.428;2022-12-07T10:07:32;7.80;99.90
4435;DHT22;46552;52.150;8.428;2022-12-07T10:10:03;7.70;99.90
4435;DHT22;46552;52.150;8.428;2022-12-07T10:12:53;7.60;99.90
4435;DHT22;46552;52.150;8.428;2022-12-07T10:15:20;7.70;99.90
4435;DHT22;46552;52.150;8.428;2022-12-07T10:17:49;7.70;99.90
4435;DHT22;46552;52.150;8.428;2022-12-07T10:20:23;7.90;99.90
4435;DHT22;46552;52.150;8.428;2022-12-07T10:22:57;7.90;99.90
4435;DHT22;46552;52.150;8.428;2022-12-07T10:25:27;7.80;99.90
4435;DHT22;46552;52.150;8.428;2022-12-07T10:28:00;7.60;99.90
4435;DHT22;46552;52.150;8.428;2022-12-07T10:30:28;7.50;99.90
4435;DHT22;46552;52.150;8.428;2022-12-07T10:32:55;7.40;99.90
4435;DHT22;46552;52.150;8.428;2022-12-07T10:35:26;7.30;99.90
4435;DHT22;46552;52.150;8.428;2022-12-07T10:37:55;7.30;99.90
4435;DHT22;46552;52.150;8.428;2022-12-07T10:40:29;7.20;99.90
4435;DHT22;46552;52.150;8.428;2022-12-07T10:43:18;7.10;99.90
4435;DHT22;46552;52.150;8.428;2022-12-07T10:46:07;7.00;99.90
4435;DHT22;46552;52.150;8.428;2022-12-07T10:48:44;7.00;99.90
4435;DHT22;46552;52.150;8.428;2022-12-07T10:51:24;6.90;99.90
4435;DHT22;46552;52.150;8.428;2022-12-07T10:54:01;7.00;99.90
4435;DHT22;46552;52.150;8.428;2022-12-07T10:56:51;6.90;99.90
4435;DHT22;46552;52.150;8.428;2022-12-07T10:59:57;7.00;99.90
4435;DHT22;46552;52.150;8.428;2022-12-07T11:02:41;7.20;99.90
4435;DHT22;46552;52.150;8.428;2022-12-07T11:05:17;7.40;99.90
4435;DHT22;46552;52.150;8.428;2022-12-07T11:07:55;7.50;99.90
4435;DHT22;46552;52.150;8.428;2022-12-07T11:10:28;7.80;99.90
4435;DHT22;46552;52.150;8.428;2022-12-07T11:13:08;8.00;99.90
4435;DHT22;46552;52.150;8.428;2022-12-07T11:15:53;8.50;99.90
4435;DHT22;46552;52.150;8.428;2022-12-07T11:18:26;8.90;99.90
4435;DHT22;46552;52.150;8.428;2022-12-07T11:21:03;9.30;99.90
4435;DHT22;46552;52.150;8.428;2022-12-07T11:23:44;9.60;99.90
4435;DHT22;46552;52.150;8.428;2022-12-07T11:26:23;9.70;99.90
4435;DHT22;46552;52.150;8.428;2022-12-07T11:29:06;9.80;99.90
4435;DHT22;46552;52.150;8.428;2022-12-07T11:31:46;9.70;99.90
4435;DHT22;46552;52.150;8.428;2022-12-07T11:34:26;9.60;99.90
4435;DHT22;46552;52.150;8.428;2022-12-07T11:37:01;9.30;99.90
4435;DHT22;46552;52.150;8.428;2022-12-07T11:39:35;9.20;99.90
4435;DHT22;46552;52.150;8.428;2022-12-07T11:42:06;9.00;99.90
4435;DHT22;46552;52.150;8.428;2022-12-07T11:44:39;8.70;99.90
4435;DHT22;46552;52.150;8.428;2022-12-07T11:47:17;8.80;99.90
4435;DHT22;46552;52.150;8.428;2022-12-07T11:49:53;9.10;99.90
4435;DHT22;46552;52.150;8.428;2022-12-07T11:52:27;9.20;99.90
4435;DHT22;46552;52.150;8.428;2022-12-07T11:54:59;9.30;99.90
4435;DHT22;46552;52.150;8.428;2022-12-07T11:57:36;9.30;99.90
4435;DHT22;46552;52.150;8.428;2022-12-07T12:00:12;9.30;99.90
4435;DHT22;46552;52.150;8.428;2022-12-07T12:02:48;9.30;99.90
4435;DHT22;46552;52.150;8.428;2022-12-07T12:05:19;9.20;99.90
4435;DHT22;46552;52.150;8.428;2022-12-07T12:07:50;9.20;99.90
4435;DHT22;46552;52.150;8.428;2022-12-07T12:10:26;9.30;99.90
4435;DHT22;46552;52.150;8.428;2022-12-07T12:13:17;9.30;99.90
4435;DHT22;46552;52.150;8.428;2022-12-07T12:18:53;9.00;99.90
4435;DHT22;46552;52.150;8.428;2022-12-07T12:21:28;9.10;99.90
4435;DHT22;46552;52.150;8.428;2022-12-07T12:23:59;9.10;99.90
4435;DHT22;46552;52.150;8.428;2022-12-07T12:26:31;9.10;99.90
4435;DHT22;46552;52.150;8.428;2022-12-07T12:29:00;9.10;99.90
4435;DHT22;46552;52.150;8.428;2022-12-07T12:31:36;9.10;99.90
4435;DHT22;46552;52.150;8.428;2022-12-07T12:34:31;9.10;99.90
4435;DHT22;46552;52.150;8.428;2022-12-07T12:36:58;8.90;99.90
4435;DHT22;46552;52.150;8.428;2022-12-07T12:39:26;8.80;99.90
4435;DHT22;46552;52.150;8.428;2022-12-07T12:42:01;8.50;99.90
4435;DHT22;46552;52.150;8.428;2022-12-07T12:44:41;8.40;99.90
4435;DHT22;46552;52.150;8.428;2022-12-07T12:47:56;8.20;99.90
4435;DHT22;46552;52.150;8.428;2022-12-07T12:50:28;8.20;99.90
4435;DHT22;46552;52.150;8.428;2022-12-07T12:53:14;8.00;99.90
4435;DHT22;46552;52.150;8.428;2022-12-07T12:58:44;7.80;99.90
4435;DHT22;46552;52.150;8.428;2022-12-07T13:01:44;7.80;99.90
4435;DHT22;46552;52.150;8.428;2022-12-07T13:04:47;7.80;99.90
4435;DHT22;46552;52.150;8.428;2022-12-07T13:13:32;8.10;99.90
4435;DHT22;46552;52.150;8.428;2022-12-07T13:16:40;8.10;99.90
4435;DHT22;46552;52.150;8.428;2022-12-07T13:25:31;8.00;99.90
4435;DHT22;46552;52.150;8.428;2022-12-07T13:28:07;7.90;99.90
4435;DHT22;46552;52.150;8.428;2022-12-07T13:30:45;7.80;99.90
4435;DHT22;46552;52.150;8.428;2022-12-07T13:33:14;7.80;99.90
4435;DHT22;46552;52.150;8.428;2022-12-07T13:35:44;7.70;99.90
4435;DHT22;46552;52.150;8.428;2022-12-07T13:38:22;7.70;99.90
4435;DHT22;46552;52.150;8.428;2022-12-07T13:41:03;7.70;99.90
4435;DHT22;46552;52.150;8.428;2022-12-07T13:43:30;7.70;99.90
4435;DHT22;46552;52.150;8.428;2022-12-07T13:45:58;7.50;99.90
4435;DHT22;46552;52.150;8.428;2022-12-07T13:48:31;7.50;99.90
4435;DHT22;46552;52.150;8.428;2022-12-07T13:51:01;7.50;99.90
4435;DHT22;46552;52.150;8.428;2022-12-07T13:53:29;7.40;99.90
4435;DHT22;46552;52.150;8.428;2022-12-07T13:55:57;7.40;99.90
4435;DHT22;46552;52.150;8.428;2022-12-07T13:58:27;7.30;99.90
4435;DHT22;46552;52.150;8.428;2022-12-07T14:00:56;7.20;99.90
4435;DHT22;46552;52.150;8.428;2022-12-07T14:03:31;7.20;99.90
4435;DHT22;46552;52.150;8.428;2022-12-07T14:06:16;7.20;99.90
4435;DHT22;46552;52.150;8.428;2022-12-07T14:08:44;7.10;99.90
4435;DHT22;46552;52.150;8.428;2022-12-07T14:11:16;7.10;99.90
4435;DHT22;46552;52.150;8.428;2022-12-07T14:14:00;7.00;99.90
4435;DHT22;46552;52.150;8.428;2022-12-07T14:16:30;7.00;99.90
4435;DHT22;46552;52.150;8.428;2022-12-07T14:18:59;6.90;99.90
4435;DHT22;46552;52.150;8.428;2022-12-07T14:21:27;6.90;99.90
4435;DHT22;46552;52.150;8.428;2022-12-07T14:24:25;6.90;99.90
4435;DHT22;46552;52.150;8.428;2022-12-07T14:26:52;6.90;99.90
4435;DHT22;46552;52.150;8.428;2022-12-07T14:29:31;6.80;99.90
4435;DHT22;46552;52.150;8.428;2022-12-07T14:32:13;6.80;99.90
4435;DHT22;46552;52.150;8.428;2022-12-07T14:34:53;6.70;99.90
4435;DHT22;46552;52.150;8.428;2022-12-07T14:37:20;6.70;99.90
4435;DHT22;46552;52.150;8.428;2022-12-07T14:39:47;6.60;99.90
4435;DHT22;46552;52.150;8.428;2022-12-07T14:42:14;6.60;99.90
4435;DHT22;46552;52.150;8.428;2022-12-07T14:44:44;6.50;99.90
4435;DHT22;46552;52.150;8.428;2022-12-07T14:47:12;6.50;99.90
4435;DHT22;46552;52.150;8.428;2022-12-07T14:49:39;6.50;99.90
4435;DHT22;46552;52.150;8.428;2022-12-07T14:52:12;6.50;99.90
4435;DHT22;46552;52.150;8.428;2022-12-07T14:54:41;6.50;99.90
4435;DHT22;46552;52.150;8.428;2022-12-07T14:57:09;6.40;99.90
4435;DHT22;46552;52.150;8.428;2022-12-07T14:59:37;6.40;99.90
4435;DHT22;46552;52.150;8.428;2022-12-07T15:02:06;6.40;99.90
4435;DHT22;46552;52.150;8.428;2022-12-07T15:04:33;6.30;99.90
4435;DHT22;46552;52.150;8.428;2022-12-07T15:07:03;6.30;99.90
4435;DHT22;46552;52.150;8.428;2022-12-07T15:09:30;6.30;99.90
4435;DHT22;46552;52.150;8.428;2022-12-07T15:11:58;6.20;99.90
4435;DHT22;46552;52.150;8.428;2022-12-07T15:14:26;8.20;99.90
4435;DHT22;46552;52.150;8.428;2022-12-07T15:16:53;6.20;99.90
4435;DHT22;46552;52.150;8.428;2022-12-07T15:19:22;6.20;99.90
4435;DHT22;46552;52.150;8.428;2022-12-07T15:21:52;6.10;99.90
4435;DHT22;46552;52.150;8.428;2022-12-07T15:24:20;6.20;99.90
4435;DHT22;46552;52.150;8.428;2022-12-07T15:26:49;6.20;99.90
4435;DHT22;46552;52.150;8.428;2022-12-07T15:29:16;6.20;99.90
4435;DHT22;46552;52.150;8.428;2022-12-07T15:31:43;6.20;99.90
4435;DHT22;46552;52.150;8.428;2022-12-07T15:34:11;6.30;99.90
4435;DHT22;46552;52.150;8.428;2022-12-07T15:36:40;6.20;99.90
4435;DHT22;46552;52.150;8.428;2022-12-07T15:39:08;6.20;99.90
4435;DHT22;46552;52.150;8.428;2022-12-07T15:41:35;6.10;99.90
4435;DHT22;46552;52.150;8.428;2022-12-07T15:44:03;6.00;99.90
4435;DHT22;46552;52.150;8.428;2022-12-07T15:46:47;5.70;99.90
4435;DHT22;46552;52.150;8.428;2022-12-07T15:49:16;5.50;99.90
4435;DHT22;46552;52.150;8.428;2022-12-07T15:51:45;5.40;99.90
4435;DHT22;46552;52.150;8.428;2022-12-07T15:54:16;5.30;99.90
4435;DHT22;46552;52.150;8.428;2022-12-07T15:56:44;5.20;99.90
4435;DHT22;46552;52.150;8.428;2022-12-07T15:59:12;5.10;99.90
4435;DHT22;46552;52.150;8.428;2022-12-07T16:01:39;5.10;99.90
4435;DHT22;46552;52.150;8.428;2022-12-07T16:04:06;5.00;99.90
4435;DHT22;46552;52.150;8.428;2022-12-07T16:06:34;4.90;99.90
4435;DHT22;46552;52.150;8.428;2022-12-07T16:09:04;4.90;99.90
4435;DHT22;46552;52.150;8.428;2022-12-07T16:11:31;4.90;99.90
4435;DHT22;46552;52.150;8.428;2022-12-07T16:13:58;4.80;99.90
4435;DHT22;46552;52.150;8.428;2022-12-07T16:16:26;4.70;99.90
4435;DHT22;46552;52.150;8.428;2022-12-07T16:18:53;4.70;99.90
4435;DHT22;46552;52.150;8.428;2022-12-07T16:21:21;4.70;99.90
4435;DHT22;46552;52.150;8.428;2022-12-07T16:23:48;4.60;99.90
4435;DHT22;46552;52.150;8.428;2022-12-07T16:26:20;4.60;99.90
4435;DHT22;46552;52.150;8.428;2022-12-07T16:28:49;4.60;99.90
4435;DHT22;46552;52.150;8.428;2022-12-07T16:31:18;4.50;99.90
4435;DHT22;46552;52.150;8.428;2022-12-07T16:33:46;4.50;99.90
4435;DHT22;46552;52.150;8.428;2022-12-07T16:36:15;4.50;99.90
4435;DHT22;46552;52.150;8.428;2022-12-07T16:38:42;4.50;99.90
4435;DHT22;46552;52.150;8.428;2022-12-07T16:41:10;4.40;99.90
4435;DHT22;46552;52.150;8.428;2022-12-07T16:43:40;4.40;99.90
4435;DHT22;46552;52.150;8.428;2022-12-07T16:46:07;4.40;99.90